sensor_id;sensor_type;location;lat;lon;timestamp;temperature;humidity
20650;DHT22;10484;48.736;9.332;2022-09-09T00:01:28;16.20;1.00
20650;DHT22;10484;48.736;9.332;2022-09-09T00:04:13;16.20;1.00
20650;DHT22;10484;48.736;9.332;2022-09-09T00:09:19;16.10;1.00
20650;DHT22;10484;48.736;9.332;2022-09-09T00:12:02;16.10;1.00
20650;DHT22;10484;48.736;9.332;2022-09-09T00:17:14;16.00;1.00
20650;DHT22;10484;48.736;9.332;2022-09-09T00:22:23;15.90;1.00
20650;DHT22;10484;48.736;9.332;2022-09-09T00:25:16;15.90;1.00
20650;DHT22;10484;48.736;9.332;2022-09-09T00:27:49;15.90;1.00
20650;DHT22;10484;48.736;9.332;2022-09-09T00:30:28;15.90;1.00
20650;DHT22;10484;48.736;9.332;2022-09-09T00:33:03;15.80;1.00
20650;DHT22;10484;48.736;9.332;2022-09-09T00:35:45;15.80;1.00
20650;DHT22;10484;48.736;9.332;2022-09-09T00:38:25;15.80;1.00
20650;DHT22;10484;48.736;9.332;2022-09-09T00:40:58;15.80;1.00
20650;DHT22;10484;48.736;9.332;2022-09-09T00:43:32;15.80;1.00
20650;DHT22;10484;48.736;9.332;2022-09-09T00:56:47;15.70;1.00
20650;DHT22;10484;48.736;9.332;2022-09-09T00:59:41;15.60;1.00
20650;DHT22;10484;48.736;9.332;2022-09-09T01:02:39;15.60;1.00
20650;DHT22;10484;48.736;9.332;2022-09-09T01:05:10;15.60;1.00
20650;DHT22;10484;48.736;9.332;2022-09-09T01:07:40;15.60;1.00
20650;DHT22;10484;48.736;9.332;2022-09-09T01:10:24;15.60;1.00
20650;DHT22;10484;48.736;9.332;2022-09-09T01:12:53;15.50;1.00
20650;DHT22;10484;48.736;9.332;2022-09-09T01:15:25;15.50;1.00
20650;DHT22;10484;48.736;9.332;2022-09-09T01:20:26;15.50;1.00
20650;DHT22;10484;48.736;9.332;2022-09-09T01:28:33;15.40;1.00
20650;DHT22;10484;48.736;9.332;2022-09-09T01:31:05;15.50;1.00
20650;DHT22;10484;48.736;9.332;2022-09-09T01:33:32;15.40;1.00
20650;DHT22;10484;48.736;9.332;2022-09-09T01:36:12;15.40;1.00
20650;DHT22;10484;48.736;9.332;2022-09-09T01:38:39;15.40;1.00
20650;DHT22;10484;48.736;9.332;2022-09-09T01:41:05;15.30;1.00
20650;DHT22;10484;48.736;9.332;2022-09-09T01:43:31;15.30;1.00
20650;DHT22;10484;48.736;9.332;2022-09-09T01:45:59;15.30;1.00
20650;DHT22;10484;48.736;9.332;2022-09-09T01:48:27;15.30;1.00
20650;DHT22;10484;48.736;9.332;2022-09-09T01:50:52;15.30;1.00
20650;DHT22;10484;48.736;9.332;2022-09-09T01:53:19;15.20;1.00
20650;DHT22;10484;48.736;9.332;2022-09-09T01:56:17;15.20;1.00
20650;DHT22;10484;48.736;9.332;2022-09-09T02:03:57;15.20;1.00
20650;DHT22;10484;48.736;9.332;2022-09-09T02:06:36;15.10;1.00
20650;DHT22;10484;48.736;9.332;2022-09-09T02:09:07;15.10;1.00
20650;DHT22;10484;48.736;9.332;2022-09-09T02:11:35;15.10;1.00
20650;DHT22;10484;48.736;9.332;2022-09-09T02:14:23;15.10;1.00
20650;DHT22;10484;48.736;9.332;2022-09-09T02:16:54;15.10;1.00
20650;DHT22;10484;48.736;9.332;2022-09-09T02:19:23;15.10;1.00
20650;DHT22;10484;48.736;9.332;2022-09-09T02:21:53;15.10;1.00
20650;DHT22;10484;48.736;9.332;2022-09-09T02:24:20;15.10;1.00
20650;DHT22;10484;48.736;9.332;2022-09-09T02:26:49;15.10;1.00
20650;DHT22;10484;48.736;9.332;2022-09-09T02:29:28;15.10;1.00
20650;DHT22;10484;48.736;9.332;2022-09-09T02:31:58;15.00;1.00
20650;DHT22;10484;48.736;9.332;2022-09-09T02:34:28;14.90;1.00
20650;DHT22;10484;48.736;9.332;2022-09-09T02:36:57;14.90;1.00
20650;DHT22;10484;48.736;9.332;2022-09-09T02:39:25;14.90;1.00
20650;DHT22;10484;48.736;9.332;2022-09-09T02:41:51;14.90;1.00
20650;DHT22;10484;48.736;9.332;2022-09-09T02:44:18;14.80;1.00
20650;DHT22;10484;48.736;9.332;2022-09-09T02:52:08;14.80;1.00
20650;DHT22;10484;48.736;9.332;2022-09-09T02:54:37;14.80;1.00
20650;DHT22;10484;48.736;9.332;2022-09-09T02:57:22;14.90;1.00
20650;DHT22;10484;48.736;9.332;2022-09-09T02:59:49;14.80;1.00
20650;DHT22;10484;48.736;9.332;2022-09-09T03:02:15;14.80;1.00
20650;DHT22;10484;48.736;9.332;2022-09-09T03:04:41;14.80;1.00
20650;DHT22;10484;48.736;9.332;2022-09-09T03:07:10;14.80;1.00
20650;DHT22;10484;48.736;9.332;2022-09-09T03:09:36;14.70;1.00
20650;DHT22;10484;48.736;9.332;2022-09-09T03:12:02;14.70;1.00
20650;DHT22;10484;48.736;9.332;2022-09-09T03:14:29;14.70;1.00
20650;DHT22;10484;48.736;9.332;2022-09-09T03:16:56;14.60;1.00
20650;DHT22;10484;48.736;9.332;2022-09-09T03:19:23;14.60;1.00
20650;DHT22;10484;48.736;9.332;2022-09-09T03:21:49;14.60;1.00
20650;DHT22;10484;48.736;9.332;2022-09-09T03:24:15;14.60;1.00
20650;DHT22;10484;48.736;9.332;2022-09-09T03:26:41;14.60;1.00
20650;DHT22;10484;48.736;9.332;2022-09-09T03:29:10;14.60;1.00
20650;DHT22;10484;48.736;9.332;2022-09-09T03:31:38;14.60;1.00
20650;DHT22;10484;48.736;9.332;2022-09-09T03:34:04;14.60;1.00
20650;DHT22;10484;48.736;9.332;2022-09-09T03:36:30;14.50;1.00
20650;DHT22;10484;48.736;9.332;2022-09-09T03:38:55;14.50;1.00
20650;DHT22;10484;48.736;9.332;2022-09-09T03:41:22;14.50;1.00
20650;DHT22;10484;48.736;9.332;2022-09-09T03:43:52;14.50;1.00
20650;DHT22;10484;48.736;9.332;2022-09-09T03:46:20;14.50;1.00
20650;DHT22;10484;48.736;9.332;2022-09-09T03:48:45;14.50;1.00
20650;DHT22;10484;48.736;9.332;2022-09-09T03:51:11;14.50;1.00
20650;DHT22;10484;48.736;9.332;2022-09-09T03:53:37;14.50;1.00
20650;DHT22;10484;48.736;9.332;2022-09-09T03:56:04;14.50;1.00
20650;DHT22;10484;48.736;9.332;2022-09-09T03:58:33;14.50;1.00
20650;DHT22;10484;48.736;9.332;2022-09-09T04:01:10;14.50;1.00
20650;DHT22;10484;48.736;9.332;2022-09-09T04:03:36;14.50;1.00
20650;DHT22;10484;48.736;9.332;2022-09-09T04:06:03;14.50;1.00
20650;DHT22;10484;48.736;9.332;2022-09-09T04:08:29;14.50;1.00
20650;DHT22;10484;48.736;9.332;2022-09-09T04:10:58;14.50;1.00
20650;DHT22;10484;48.736;9.332;2022-09-09T04:13:25;14.50;1.00
20650;DHT22;10484;48.736;9.332;2022-09-09T04:15:55;14.50;1.00
20650;DHT22;10484;48.736;9.332;2022-09-09T04:18:21;14.40;1.00
20650;DHT22;10484;48.736;9.332;2022-09-09T04:20:48;14.50;1.00
20650;DHT22;10484;48.736;9.332;2022-09-09T04:23:14;14.50;1.00
20650;DHT22;10484;48.736;9.332;2022-09-09T04:25:47;14.50;1.00
20650;DHT22;10484;48.736;9.332;2022-09-09T04:28:15;14.50;1.00
20650;DHT22;10484;48.736;9.332;2022-09-09T04:30:41;14.50;1.00
20650;DHT22;10484;48.736;9.332;2022-09-09T04:33:07;14.50;1.00
20650;DHT22;10484;48.736;9.332;2022-09-09T04:35:33;14.50;1.00
20650;DHT22;10484;48.736;9.332;2022-09-09T04:37:59;14.40;1.00
20650;DHT22;10484;48.736;9.332;2022-09-09T04:40:25;14.40;1.00
20650;DHT22;10484;48.736;9.332;2022-09-09T04:42:51;14.40;1.00
20650;DHT22;10484;48.736;9.332;2022-09-09T04:45:16;14.40;1.00
20650;DHT22;10484;48.736;9.332;2022-09-09T04:47:42;14.40;1.00
20650;DHT22;10484;48.736;9.332;2022-09-09T04:50:08;14.40;1.00
20650;DHT22;10484;48.736;9.332;2022-09-09T04:52:36;14.40;1.00
20650;DHT22;10484;48.736;9.332;2022-09-09T04:55:03;14.40;1.00
20650;DHT22;10484;48.736;9.332;2022-09-09T04:57:29;14.40;1.00
20650;DHT22;10484;48.736;9.332;2022-09-09T04:59:57;14.40;1.00
20650;DHT22;10484;48.736;9.332;2022-09-09T05:02:23;14.40;1.00
20650;DHT22;10484;48.736;9.332;2022-09-09T05:04:48;14.40;1.00
20650;DHT22;10484;48.736;9.332;2022-09-09T05:07:15;14.40;1.00
20650;DHT22;10484;48.736;9.332;2022-09-09T05:09:40;14.40;1.00
20650;DHT22;10484;48.736;9.332;2022-09-09T05:12:06;14.40;1.00
20650;DHT22;10484;48.736;9.332;2022-09-09T05:14:33;14.40;1.00
20650;DHT22;10484;48.736;9.332;2022-09-09T05:17:01;14.40;1.00
20650;DHT22;10484;48.736;9.332;2022-09-09T05:19:27;14.40;1.00
20650;DHT22;10484;48.736;9.332;2022-09-09T05:21:53;14.40;1.00
20650;DHT22;10484;48.736;9.332;2022-09-09T05:24:18;14.40;1.00
20650;DHT22;10484;48.736;9.332;2022-09-09T05:26:44;14.40;1.00
20650;DHT22;10484;48.736;9.332;2022-09-09T05:29:09;14.40;1.00
20650;DHT22;10484;48.736;9.332;2022-09-09T05:31:35;14.40;1.00
20650;DHT22;10484;48.736;9.332;2022-09-09T05:34:02;14.40;1.00
20650;DHT22;10484;48.736;9.332;2022-09-09T05:36:27;14.40;1.00
20650;DHT22;10484;48.736;9.332;2022-09-09T05:38:53;14.40;1.00
20650;DHT22;10484;48.736;9.332;2022-09-09T05:41:19;14.40;1.00
20650;DHT22;10484;48.736;9.332;2022-09-09T05:43:45;14.40;1.00
20650;DHT22;10484;48.736;9.332;2022-09-09T05:46:23;14.40;1.00
20650;DHT22;10484;48.736;9.332;2022-09-09T05:48:51;14.50;1.00
20650;DHT22;10484;48.736;9.332;2022-09-09T05:51:19;14.50;1.00
20650;DHT22;10484;48.736;9.332;2022-09-09T05:53:47;14.50;1.00
20650;DHT22;10484;48.736;9.332;2022-09-09T05:56:14;14.50;1.00
20650;DHT22;10484;48.736;9.332;2022-09-09T05:58:40;14.60;1.00
20650;DHT22;10484;48.736;9.332;2022-09-09T06:01:14;14.60;1.00
20650;DHT22;10484;48.736;9.332;2022-09-09T06:03:41;14.60;1.00
20650;DHT22;10484;48.736;9.332;2022-09-09T06:06:10;14.60;1.00
20650;DHT22;10484;48.736;9.332;2022-09-09T06:08:41;14.60;1.00
20650;DHT22;10484;48.736;9.332;2022-09-09T06:13:35;14.60;1.00
20650;DHT22;10484;48.736;9.332;2022-09-09T06:16:02;14.60;1.00
20650;DHT22;10484;48.736;9.332;2022-09-09T06:18:28;14.60;1.00
20650;DHT22;10484;48.736;9.332;2022-09-09T06:20:55;14.60;1.00
20650;DHT22;10484;48.736;9.332;2022-09-09T06:23:21;14.70;1.00
20650;DHT22;10484;48.736;9.332;2022-09-09T06:25:47;14.70;1.00
20650;DHT22;10484;48.736;9.332;2022-09-09T06:28:14;14.70;1.00
20650;DHT22;10484;48.736;9.332;2022-09-09T06:30:40;14.70;1.00
20650;DHT22;10484;48.736;9.332;2022-09-09T06:33:06;14.80;1.00
20650;DHT22;10484;48.736;9.332;2022-09-09T06:35:32;14.80;1.00
20650;DHT22;10484;48.736;9.332;2022-09-09T06:37:57;14.80;1.00
20650;DHT22;10484;48.736;9.332;2022-09-09T06:40:24;14.80;1.00
20650;DHT22;10484;48.736;9.332;2022-09-09T06:42:50;14.80;1.00
20650;DHT22;10484;48.736;9.332;2022-09-09T06:45:16;14.80;1.00
20650;DHT22;10484;48.736;9.332;2022-09-09T06:47:42;14.80;1.00
20650;DHT22;10484;48.736;9.332;2022-09-09T06:50:08;14.90;1.00
20650;DHT22;10484;48.736;9.332;2022-09-09T06:52:33;14.90;1.00
20650;DHT22;10484;48.736;9.332;2022-09-09T06:54:59;14.90;1.00
20650;DHT22;10484;48.736;9.332;2022-09-09T06:57:25;14.90;1.00
20650;DHT22;10484;48.736;9.332;2022-09-09T06:59:51;14.90;1.00
20650;DHT22;10484;48.736;9.332;2022-09-09T07:02:17;14.90;1.00
20650;DHT22;10484;48.736;9.332;2022-09-09T07:04:42;15.00;1.00
20650;DHT22;10484;48.736;9.332;2022-09-09T07:07:08;15.00;1.00
20650;DHT22;10484;48.736;9.332;2022-09-09T07:09:35;15.00;1.00
20650;DHT22;10484;48.736;9.332;2022-09-09T07:12:01;15.10;1.00
20650;DHT22;10484;48.736;9.332;2022-09-09T07:14:26;15.10;1.00
20650;DHT22;10484;48.736;9.332;2022-09-09T07:16:52;15.10;1.00
20650;DHT22;10484;48.736;9.332;2022-09-09T07:19:18;15.20;1.00
20650;DHT22;10484;48.736;9.332;2022-09-09T07:21:44;15.20;1.00
20650;DHT22;10484;48.736;9.332;2022-09-09T07:24:10;15.30;1.00
20650;DHT22;10484;48.736;9.332;2022-09-09T07:26:38;15.30;1.00
20650;DHT22;10484;48.736;9.332;2022-09-09T07:29:04;15.40;1.00
20650;DHT22;10484;48.736;9.332;2022-09-09T07:31:32;15.40;1.00
20650;DHT22;10484;48.736;9.332;2022-09-09T07:34:00;15.50;1.00
20650;DHT22;10484;48.736;9.332;2022-09-09T07:36:37;15.50;1.00
20650;DHT22;10484;48.736;9.332;2022-09-09T07:39:05;15.50;1.00
20650;DHT22;10484;48.736;9.332;2022-09-09T07:41:38;15.60;1.00
20650;DHT22;10484;48.736;9.332;2022-09-09T07:44:09;15.60;1.00
20650;DHT22;10484;48.736;9.332;2022-09-09T07:46:36;15.60;1.00
20650;DHT22;10484;48.736;9.332;2022-09-09T07:49:02;15.70;1.00
20650;DHT22;10484;48.736;9.332;2022-09-09T07:51:31;15.70;1.00
20650;DHT22;10484;48.736;9.332;2022-09-09T07:54:01;15.80;1.00
20650;DHT22;10484;48.736;9.332;2022-09-09T07:56:30;15.80;1.00
20650;DHT22;10484;48.736;9.332;2022-09-09T07:58:58;15.90;1.00
20650;DHT22;10484;48.736;9.332;2022-09-09T08:01:27;15.90;1.00
20650;DHT22;10484;48.736;9.332;2022-09-09T08:04:05;16.00;1.00
20650;DHT22;10484;48.736;9.332;2022-09-09T08:06:35;16.10;1.00
20650;DHT22;10484;48.736;9.332;2022-09-09T08:09:02;16.10;1.00
20650;DHT22;10484;48.736;9.332;2022-09-09T08:11:29;16.20;1.00
20650;DHT22;10484;48.736;9.332;2022-09-09T08:13:55;16.30;1.00
20650;DHT22;10484;48.736;9.332;2022-09-09T08:16:26;16.40;1.00
20650;DHT22;10484;48.736;9.332;2022-09-09T08:18:53;16.40;1.00
20650;DHT22;10484;48.736;9.332;2022-09-09T08:21:22;16.50;1.00
20650;DHT22;10484;48.736;9.332;2022-09-09T08:23:51;16.60;1.00
20650;DHT22;10484;48.736;9.332;2022-09-09T08:26:26;16.70;1.00
20650;DHT22;10484;48.736;9.332;2022-09-09T08:28:55;16.80;1.00
20650;DHT22;10484;48.736;9.332;2022-09-09T08:31:33;16.90;1.00
20650;DHT22;10484;48.736;9.332;2022-09-09T08:34:00;17.00;1.00
20650;DHT22;10484;48.736;9.332;2022-09-09T08:36:28;17.10;1.00
20650;DHT22;10484;48.736;9.332;2022-09-09T08:38:57;17.20;1.00
20650;DHT22;10484;48.736;9.332;2022-09-09T08:47:24;17.60;1.00
20650;DHT22;10484;48.736;9.332;2022-09-09T08:57:55;18.10;1.00
20650;DHT22;10484;48.736;9.332;2022-09-09T09:00:21;18.20;1.00
20650;DHT22;10484;48.736;9.332;2022-09-09T09:03:15;18.30;1.00
20650;DHT22;10484;48.736;9.332;2022-09-09T09:09:02;18.60;1.00
20650;DHT22;10484;48.736;9.332;2022-09-09T09:11:38;18.80;1.00
20650;DHT22;10484;48.736;9.332;2022-09-09T09:14:27;18.80;1.00
20650;DHT22;10484;48.736;9.332;2022-09-09T09:17:06;18.90;1.00
20650;DHT22;10484;48.736;9.332;2022-09-09T09:19:35;19.00;1.00
20650;DHT22;10484;48.736;9.332;2022-09-09T09:22:46;19.10;1.00
20650;DHT22;10484;48.736;9.332;2022-09-09T09:25:21;19.20;1.00
20650;DHT22;10484;48.736;9.332;2022-09-09T09:27:57;19.40;1.00
20650;DHT22;10484;48.736;9.332;2022-09-09T09:30:34;19.50;1.00
20650;DHT22;10484;48.736;9.332;2022-09-09T09:33:05;19.60;1.00
20650;DHT22;10484;48.736;9.332;2022-09-09T09:35:34;19.70;1.00
20650;DHT22;10484;48.736;9.332;2022-09-09T09:37:59;19.90;1.00
20650;DHT22;10484;48.736;9.332;2022-09-09T09:40:26;20.00;1.00
20650;DHT22;10484;48.736;9.332;2022-09-09T09:42:58;20.00;1.00
20650;DHT22;10484;48.736;9.332;2022-09-09T09:45:35;20.10;1.00
20650;DHT22;10484;48.736;9.332;2022-09-09T09:48:06;20.10;1.00
20650;DHT22;10484;48.736;9.332;2022-09-09T09:50:34;20.10;1.00
20650;DHT22;10484;48.736;9.332;2022-09-09T09:53:03;20.10;1.00
20650;DHT22;10484;48.736;9.332;2022-09-09T09:55:34;20.10;1.00
20650;DHT22;10484;48.736;9.332;2022-09-09T09:58:13;20.10;1.00
20650;DHT22;10484;48.736;9.332;2022-09-09T10:00:48;20.10;1.00
20650;DHT22;10484;48.736;9.332;2022-09-09T10:03:35;20.20;1.00
20650;DHT22;10484;48.736;9.332;2022-09-09T10:06:06;20.30;1.00
20650;DHT22;10484;48.736;9.332;2022-09-09T10:08:34;20.40;1.00
20650;DHT22;10484;48.736;9.332;2022-09-09T10:11:55;20.50;1.00
20650;DHT22;10484;48.736;9.332;2022-09-09T10:20:32;20.80;1.00
20650;DHT22;10484;48.736;9.332;2022-09-09T10:28:48;21.20;1.00
20650;DHT22;10484;48.736;9.332;2022-09-09T10:31:37;21.30;1.00
20650;DHT22;10484;48.736;9.332;2022-09-09T10:38:04;21.50;1.00
20650;DHT22;10484;48.736;9.332;2022-09-09T10:42:52;21.70;1.00
20650;DHT22;10484;48.736;9.332;2022-09-09T10:45:31;21.80;1.00
20650;DHT22;10484;48.736;9.332;2022-09-09T10:56:15;22.20;1.00
20650;DHT22;10484;48.736;9.332;2022-09-09T10:58:46;22.30;1.00
20650;DHT22;10484;48.736;9.332;2022-09-09T11:01:24;22.40;1.00
20650;DHT22;10484;48.736;9.332;2022-09-09T11:04:05;22.40;1.00
20650;DHT22;10484;48.736;9.332;2022-09-09T11:06:40;22.50;1.00
20650;DHT22;10484;48.736;9.332;2022-09-09T11:09:15;22.50;1.00
20650;DHT22;10484;48.736;9.332;2022-09-09T11:11:51;22.50;1.00
20650;DHT22;10484;48.736;9.332;2022-09-09T11:17:26;22.60;1.00
20650;DHT22;10484;48.736;9.332;2022-09-09T11:19:57;22.80;1.00
20650;DHT22;10484;48.736;9.332;2022-09-09T11:22:35;22.90;1.00
20650;DHT22;10484;48.736;9.332;2022-09-09T11:27:44;23.00;1.00
20650;DHT22;10484;48.736;9.332;2022-09-09T11:30:22;23.00;1.00
20650;DHT22;10484;48.736;9.332;2022-09-09T11:38:45;22.90;1.00
20650;DHT22;10484;48.736;9.332;2022-09-09T11:41:12;22.80;1.00
20650;DHT22;10484;48.736;9.332;2022-09-09T11:43:52;22.70;1.00
20650;DHT22;10484;48.736;9.332;2022-09-09T11:46:21;22.50;1.00
20650;DHT22;10484;48.736;9.332;2022-09-09T11:49:03;22.40;1.00
20650;DHT22;10484;48.736;9.332;2022-09-09T11:51:31;22.30;1.00
20650;DHT22;10484;48.736;9.332;2022-09-09T11:56:46;22.30;1.00
20650;DHT22;10484;48.736;9.332;2022-09-09T11:59:33;22.30;1.00
20650;DHT22;10484;48.736;9.332;2022-09-09T12:02:27;22.40;1.00
20650;DHT22;10484;48.736;9.332;2022-09-09T12:05:07;22.40;1.00
20650;DHT22;10484;48.736;9.332;2022-09-09T12:07:45;22.50;1.00
20650;DHT22;10484;48.736;9.332;2022-09-09T12:10:31;22.50;1.00
20650;DHT22;10484;48.736;9.332;2022-09-09T12:13:18;22.50;1.00
20650;DHT22;10484;48.736;9.332;2022-09-09T12:15:55;22.40;1.00
20650;DHT22;10484;48.736;9.332;2022-09-09T12:18:41;22.40;1.00
20650;DHT22;10484;48.736;9.332;2022-09-09T12:21:32;22.40;1.00
20650;DHT22;10484;48.736;9.332;2022-09-09T12:26:46;22.50;1.00
20650;DHT22;10484;48.736;9.332;2022-09-09T12:31:54;22.60;1.00
20650;DHT22;10484;48.736;9.332;2022-09-09T12:34:52;22.60;1.00
20650;DHT22;10484;48.736;9.332;2022-09-09T12:37:41;22.70;1.00
20650;DHT22;10484;48.736;9.332;2022-09-09T12:40:23;22.70;1.00
20650;DHT22;10484;48.736;9.332;2022-09-09T12:42:49;22.80;1.00
20650;DHT22;10484;48.736;9.332;2022-09-09T12:45:18;22.80;1.00
20650;DHT22;10484;48.736;9.332;2022-09-09T12:47:54;22.90;1.00
20650;DHT22;10484;48.736;9.332;2022-09-09T12:50:26;22.90;1.00
20650;DHT22;10484;48.736;9.332;2022-09-09T12:53:00;22.90;1.00
20650;DHT22;10484;48.736;9.332;2022-09-09T12:55:32;22.90;1.00
20650;DHT22;10484;48.736;9.332;2022-09-09T12:58:01;23.00;1.00
20650;DHT22;10484;48.736;9.332;2022-09-09T13:00:29;23.10;1.00
20650;DHT22;10484;48.736;9.332;2022-09-09T13:03:16;23.10;1.00
20650;DHT22;10484;48.736;9.332;2022-09-09T13:05:42;23.10;1.00
20650;DHT22;10484;48.736;9.332;2022-09-09T13:08:13;23.10;1.00
20650;DHT22;10484;48.736;9.332;2022-09-09T13:11:00;23.00;1.00
20650;DHT22;10484;48.736;9.332;2022-09-09T13:13:37;23.00;1.00
20650;DHT22;10484;48.736;9.332;2022-09-09T13:16:06;23.00;1.00
20650;DHT22;10484;48.736;9.332;2022-09-09T13:18:40;23.10;1.00
20650;DHT22;10484;48.736;9.332;2022-09-09T13:21:06;23.10;1.00
20650;DHT22;10484;48.736;9.332;2022-09-09T13:23:36;23.20;1.00
20650;DHT22;10484;48.736;9.332;2022-09-09T13:26:25;23.20;1.00
20650;DHT22;10484;48.736;9.332;2022-09-09T13:28:53;23.20;1.00
20650;DHT22;10484;48.736;9.332;2022-09-09T13:31:30;23.20;1.00
20650;DHT22;10484;48.736;9.332;2022-09-09T13:33:57;23.20;1.00
20650;DHT22;10484;48.736;9.332;2022-09-09T13:36:30;23.30;1.00
20650;DHT22;10484;48.736;9.332;2022-09-09T13:38:58;23.30;1.00
20650;DHT22;10484;48.736;9.332;2022-09-09T13:41:34;23.30;1.00
20650;DHT22;10484;48.736;9.332;2022-09-09T13:44:02;23.30;1.00
20650;DHT22;10484;48.736;9.332;2022-09-09T13:46:34;23.30;1.00
20650;DHT22;10484;48.736;9.332;2022-09-09T13:49:21;23.20;1.00
20650;DHT22;10484;48.736;9.332;2022-09-09T13:51:49;23.30;1.00
20650;DHT22;10484;48.736;9.332;2022-09-09T13:54:17;23.30;1.00
20650;DHT22;10484;48.736;9.332;2022-09-09T13:56:44;23.30;1.00
20650;DHT22;10484;48.736;9.332;2022-09-09T13:59:19;23.40;1.00
20650;DHT22;10484;48.736;9.332;2022-09-09T14:01:46;23.40;1.00
20650;DHT22;10484;48.736;9.332;2022-09-09T14:04:12;23.40;1.00
20650;DHT22;10484;48.736;9.332;2022-09-09T14:06:39;23.40;1.00
20650;DHT22;10484;48.736;9.332;2022-09-09T14:09:06;23.50;1.00
20650;DHT22;10484;48.736;9.332;2022-09-09T14:11:33;23.50;1.00
20650;DHT22;10484;48.736;9.332;2022-09-09T14:13:59;23.50;1.00
20650;DHT22;10484;48.736;9.332;2022-09-09T14:16:26;23.50;1.00
20650;DHT22;10484;48.736;9.332;2022-09-09T14:18:53;23.50;1.00
20650;DHT22;10484;48.736;9.332;2022-09-09T14:21:21;23.60;1.00
20650;DHT22;10484;48.736;9.332;2022-09-09T14:23:47;23.60;1.00
20650;DHT22;10484;48.736;9.332;2022-09-09T14:26:14;23.60;1.00
20650;DHT22;10484;48.736;9.332;2022-09-09T14:28:40;23.60;1.00
20650;DHT22;10484;48.736;9.332;2022-09-09T14:31:06;23.70;1.00
20650;DHT22;10484;48.736;9.332;2022-09-09T14:33:32;23.70;1.00
20650;DHT22;10484;48.736;9.332;2022-09-09T14:36:00;23.70;1.00
20650;DHT22;10484;48.736;9.332;2022-09-09T14:38:29;23.70;1.00
20650;DHT22;10484;48.736;9.332;2022-09-09T14:40:56;23.70;1.00
20650;DHT22;10484;48.736;9.332;2022-09-09T14:43:23;23.80;1.00
20650;DHT22;10484;48.736;9.332;2022-09-09T14:45:49;23.80;1.00
20650;DHT22;10484;48.736;9.332;2022-09-09T14:48:16;23.80;1.00
20650;DHT22;10484;48.736;9.332;2022-09-09T14:50:42;23.80;1.00
20650;DHT22;10484;48.736;9.332;2022-09-09T14:53:08;23.70;1.00
20650;DHT22;10484;48.736;9.332;2022-09-09T14:55:35;23.70;1.00
20650;DHT22;10484;48.736;9.332;2022-09-09T14:58:03;23.70;1.00
20650;DHT22;10484;48.736;9.332;2022-09-09T15:00:29;23.70;1.00
20650;DHT22;10484;48.736;9.332;2022-09-09T15:02:55;23.70;1.00
20650;DHT22;10484;48.736;9.332;2022-09-09T15:05:20;23.70;1.00
20650;DHT22;10484;48.736;9.332;2022-09-09T15:07:46;23.70;1.00
20650;DHT22;10484;48.736;9.332;2022-09-09T15:10:14;23.70;1.00
20650;DHT22;10484;48.736;9.332;2022-09-09T15:12:39;23.70;1.00
20650;DHT22;10484;48.736;9.332;2022-09-09T15:15:07;23.70;1.00
20650;DHT22;10484;48.736;9.332;2022-09-09T15:17:34;23.70;1.00
20650;DHT22;10484;48.736;9.332;2022-09-09T15:20:03;23.70;1.00
20650;DHT22;10484;48.736;9.332;2022-09-09T15:22:31;23.70;1.00
20650;DHT22;10484;48.736;9.332;2022-09-09T15:24:57;23.70;1.00
20650;DHT22;10484;48.736;9.332;2022-09-09T15:27:22;23.60;1.00
20650;DHT22;10484;48.736;9.332;2022-09-09T15:29:49;23.60;1.00
20650;DHT22;10484;48.736;9.332;2022-09-09T15:32:15;23.50;1.00
20650;DHT22;10484;48.736;9.332;2022-09-09T15:34:41;23.50;1.00
20650;DHT22;10484;48.736;9.332;2022-09-09T15:37:10;23.50;1.00
20650;DHT22;10484;48.736;9.332;2022-09-09T15:39:36;23.50;1.00
20650;DHT22;10484;48.736;9.332;2022-09-09T15:42:03;23.50;1.00
20650;DHT22;10484;48.736;9.332;2022-09-09T15:44:28;23.50;1.00
20650;DHT22;10484;48.736;9.332;2022-09-09T15:46:54;23.50;1.00
20650;DHT22;10484;48.736;9.332;2022-09-09T15:49:25;23.50;1.00
20650;DHT22;10484;48.736;9.332;2022-09-09T15:51:53;23.50;1.00
20650;DHT22;10484;48.736;9.332;2022-09-09T15:54:20;23.50;1.00
20650;DHT22;10484;48.736;9.332;2022-09-09T15:56:57;23.50;1.00
20650;DHT22;10484;48.736;9.332;2022-09-09T15:59:24;23.50;1.00
20650;DHT22;10484;48.736;9.332;2022-09-09T16:01:50;23.40;1.00
20650;DHT22;10484;48.736;9.332;2022-09-09T16:04:19;23.40;1.00
20650;DHT22;10484;48.736;9.332;2022-09-09T16:06:51;23.40;1.00
20650;DHT22;10484;48.736;9.332;2022-09-09T16:09:18;23.30;1.00
20650;DHT22;10484;48.736;9.332;2022-09-09T16:11:43;23.30;1.00
20650;DHT22;10484;48.736;9.332;2022-09-09T16:14:09;23.20;1.00
20650;DHT22;10484;48.736;9.332;2022-09-09T16:16:36;23.20;1.00
20650;DHT22;10484;48.736;9.332;2022-09-09T16:19:07;23.20;1.00
20650;DHT22;10484;48.736;9.332;2022-09-09T16:21:37;23.10;1.00
20650;DHT22;10484;48.736;9.332;2022-09-09T16:24:04;23.10;1.00
20650;DHT22;10484;48.736;9.332;2022-09-09T16:26:32;23.10;1.00
20650;DHT22;10484;48.736;9.332;2022-09-09T16:28:59;23.00;1.00
20650;DHT22;10484;48.736;9.332;2022-09-09T16:31:26;23.00;1.00
20650;DHT22;10484;48.736;9.332;2022-09-09T16:33:52;23.00;1.00
20650;DHT22;10484;48.736;9.332;2022-09-09T16:36:22;23.00;1.00
20650;DHT22;10484;48.736;9.332;2022-09-09T16:38:51;23.00;1.00
20650;DHT22;10484;48.736;9.332;2022-09-09T16:41:17;22.90;1.00
20650;DHT22;10484;48.736;9.332;2022-09-09T16:43:44;22.80;1.00
20650;DHT22;10484;48.736;9.332;2022-09-09T16:46:16;22.80;1.00
20650;DHT22;10484;48.736;9.332;2022-09-09T16:48:44;22.80;1.00
20650;DHT22;10484;48.736;9.332;2022-09-09T16:51:22;22.70;1.00
20650;DHT22;10484;48.736;9.332;2022-09-09T16:53:49;22.70;1.00
20650;DHT22;10484;48.736;9.332;2022-09-09T16:56:18;22.70;1.00
20650;DHT22;10484;48.736;9.332;2022-09-09T16:58:56;22.60;1.00
20650;DHT22;10484;48.736;9.332;2022-09-09T17:01:34;22.50;1.00
20650;DHT22;10484;48.736;9.332;2022-09-09T17:04:05;22.50;1.00
20650;DHT22;10484;48.736;9.332;2022-09-09T17:06:33;22.50;1.00
20650;DHT22;10484;48.736;9.332;2022-09-09T17:09:09;22.50;1.00
20650;DHT22;10484;48.736;9.332;2022-09-09T17:11:37;22.50;1.00
20650;DHT22;10484;48.736;9.332;2022-09-09T17:14:03;22.50;1.00
20650;DHT22;10484;48.736;9.332;2022-09-09T17:16:31;22.40;1.00
20650;DHT22;10484;48.736;9.332;2022-09-09T17:18:59;22.40;1.00
20650;DHT22;10484;48.736;9.332;2022-09-09T17:21:27;22.40;1.00
20650;DHT22;10484;48.736;9.332;2022-09-09T17:23:55;22.40;1.00
20650;DHT22;10484;48.736;9.332;2022-09-09T17:26:24;22.40;1.00
20650;DHT22;10484;48.736;9.332;2022-09-09T17:28:52;22.40;1.00
20650;DHT22;10484;48.736;9.332;2022-09-09T17:31:18;22.30;1.00
20650;DHT22;10484;48.736;9.332;2022-09-09T17:33:46;22.30;1.00
20650;DHT22;10484;48.736;9.332;2022-09-09T17:38:39;22.20;1.00
20650;DHT22;10484;48.736;9.332;2022-09-09T17:41:08;22.20;1.00
20650;DHT22;10484;48.736;9.332;2022-09-09T17:43:35;22.20;1.00
20650;DHT22;10484;48.736;9.332;2022-09-09T17:46:25;22.20;1.00
20650;DHT22;10484;48.736;9.332;2022-09-09T17:48:55;22.10;1.00
20650;DHT22;10484;48.736;9.332;2022-09-09T17:51:23;22.10;1.00